Terminal Aerodrome Forecast
Issued by NWS Lake Charles, LA

Home | Current Version | Previous Version | Text Only | Print | Product List | Glossary On
Versions: 1 2 3 4 5 6 7 8 9 10 11 12 13 14 15 16 17 18
000
FTUS44 KLCH 272336
TAFAEX
TAF
KAEX 272336Z 2800/2824 VRB05KT 2SM +RA SCT008 BKN050
     FM280200 00000KT P6SM FEW100 BKN200
     FM280800 00000KT 5SM BR BKN150
     FM281400 08006KT P6SM SCT030 BKN100
     FM281700 09010KT P6SM VCTS FEW015CB SCT030 BKN050 PROB30
      2819/2824 3SM TSRA BKN015CB OVC030=

USA.gov is the U.S. government's official web portal to all federal, state and local government web resources and services.